createdAt,value
2018-08-19T00:01:00.984Z,99440.64
2018-08-19T00:03:30.894Z,99418.70
2018-08-19T00:06:01.083Z,99443.16
2018-08-19T00:08:30.653Z,99437.50
2018-08-19T00:11:02.819Z,99436.12
2018-08-19T00:13:32.713Z,99434.96
2018-08-19T00:16:02.705Z,99435.20
2018-08-19T00:18:33.263Z,99429.84
2018-08-19T00:21:05.593Z,99432.53
2018-08-19T00:23:42.601Z,99429.59
2018-08-19T00:26:14.883Z,99422.16
2018-08-19T00:28:45.380Z,99427.17
2018-08-19T00:31:14.846Z,99424.39
2018-08-19T00:33:44.289Z,99437.32
2018-08-19T00:36:25.627Z,99425.91
2018-08-19T00:38:56.017Z,99428.44
2018-08-19T00:41:28.894Z,99433.30
2018-08-19T00:43:58.414Z,99426.98
2018-08-19T00:46:31.400Z,99432.25
2018-08-19T00:49:02.232Z,99439.39
2018-08-19T00:51:31.687Z,99441.62
2018-08-19T00:54:01.850Z,99451.17
2018-08-19T00:56:31.269Z,99450.19
2018-08-19T00:59:00.996Z,99450.47
2018-08-19T01:01:36.601Z,99451.69
2018-08-19T01:04:11.657Z,99448.16
2018-08-19T01:06:53.562Z,99445.39
2018-08-19T01:09:32.039Z,99445.27
2018-08-19T01:12:02.324Z,99445.23
2018-08-19T01:14:34.750Z,99444.11
2018-08-19T01:17:06.801Z,99436.55
2018-08-19T01:19:41.700Z,99449.12
2018-08-19T01:22:15.395Z,99449.31
2018-08-19T01:24:48.848Z,99452.63
2018-08-19T01:27:19.391Z,99457.64
2018-08-19T01:29:48.917Z,99462.42
2018-08-19T01:32:18.694Z,99466.17
2018-08-19T01:34:52.193Z,99466.08
2018-08-19T01:37:22.145Z,99471.19
2018-08-19T01:39:51.865Z,99464.77
2018-08-19T01:42:21.369Z,99466.00
2018-08-19T01:44:50.849Z,99466.63
2018-08-19T01:47:20.284Z,99464.31
2018-08-19T01:49:50.508Z,99463.32
2018-08-19T01:52:19.914Z,99459.42
2018-08-19T01:54:49.439Z,99462.11
2018-08-19T01:57:18.869Z,99456.27
2018-08-19T01:59:48.347Z,99461.40
2018-08-19T02:02:18.240Z,99467.63
2018-08-19T02:04:52.924Z,99470.48
2018-08-19T02:07:22.442Z,99465.52
2018-08-19T02:10:01.238Z,99469.30
2018-08-19T02:12:35.806Z,99468.91
2018-08-19T02:15:14.508Z,99478.08
2018-08-19T02:17:48.410Z,99478.94
2018-08-19T02:20:18.641Z,99472.28
2018-08-19T02:22:52.196Z,99476.80
2018-08-19T02:25:22.419Z,99473.73
2018-08-19T02:27:51.854Z,99484.94
2018-08-19T02:30:21.269Z,99479.85
2018-08-19T02:32:53.231Z,99486.15
2018-08-19T02:35:24.112Z,99481.42
2018-08-19T02:37:53.651Z,99488.46
2018-08-19T02:40:29.547Z,99486.16
2018-08-19T02:43:00.155Z,99483.75
2018-08-19T02:45:29.677Z,99485.45
2018-08-19T02:47:59.890Z,99489.46
2018-08-19T02:50:29.389Z,99493.22
2018-08-19T02:52:58.822Z,99490.90
2018-08-19T02:55:28.239Z,99500.01
2018-08-19T02:58:03.102Z,99494.06
2018-08-19T03:00:32.625Z,99490.40
2018-08-19T03:03:02.141Z,99486.02
2018-08-19T03:05:31.617Z,99489.27
2018-08-19T03:08:02.415Z,99489.13
2018-08-19T03:10:31.842Z,99486.45
2018-08-19T03:13:01.302Z,99492.67
2018-08-19T03:15:30.781Z,99484.39
2018-08-19T03:18:00.489Z,99488.09
2018-08-19T03:20:30.191Z,99487.02
2018-08-19T03:23:00.285Z,99491.88
2018-08-19T03:25:31.822Z,99491.52
2018-08-19T03:28:02.730Z,99495.28
2018-08-19T03:30:32.164Z,99492.36
2018-08-19T03:33:02.095Z,99499.88
2018-08-19T03:35:33.447Z,99497.59
2018-08-19T03:38:10.043Z,99501.36
2018-08-19T03:40:41.088Z,99502.20
2018-08-19T03:43:11.959Z,99500.50
2018-08-19T03:45:43.868Z,99500.98
2018-08-19T03:48:15.743Z,99501.09
2018-08-19T03:50:45.914Z,99512.62
2018-08-19T03:53:15.498Z,99511.28
2018-08-19T03:55:45.835Z,99514.45
2018-08-19T03:58:17.561Z,99510.06
2018-08-19T04:00:47.006Z,99512.62
2018-08-19T04:03:22.803Z,99512.26
2018-08-19T04:05:56.144Z,99516.27
2018-08-19T04:08:35.343Z,99521.44
2018-08-19T04:11:07.881Z,99518.75
2018-08-19T04:13:40.070Z,99519.94
2018-08-19T04:16:11.129Z,99526.48
2018-08-19T04:18:47.789Z,99525.97
2018-08-19T04:21:18.676Z,99520.74
2018-08-19T04:23:58.891Z,99521.11
2018-08-19T04:26:28.743Z,99523.66
2018-08-19T04:28:58.200Z,99524.92
2018-08-19T04:31:28.129Z,99526.51
2018-08-19T04:34:00.052Z,99525.45
2018-08-19T04:36:32.779Z,99532.48
2018-08-19T04:39:02.225Z,99535.33
2018-08-19T04:41:35.028Z,99541.28
2018-08-19T04:44:05.573Z,99540.09
2018-08-19T04:46:35.926Z,99536.33
2018-08-19T04:49:05.686Z,99529.77
2018-08-19T04:51:35.121Z,99534.16
2018-08-19T04:54:05.612Z,99530.28
2018-08-19T04:56:35.001Z,99534.91
2018-08-19T04:59:06.573Z,99531.25
2018-08-19T05:01:39.539Z,99538.22
2018-08-19T05:04:09.699Z,99538.68
2018-08-19T05:06:39.317Z,99532.08
2018-08-19T05:09:09.070Z,99539.48
2018-08-19T05:11:38.554Z,99544.92
2018-08-19T05:14:08.067Z,99438.09
2018-08-19T05:16:39.006Z,99539.65
2018-08-19T05:19:08.462Z,99538.78
2018-08-19T05:21:37.977Z,99534.88
2018-08-19T05:24:07.464Z,99528.28
2018-08-19T05:26:36.926Z,99533.35
2018-08-19T05:29:09.979Z,99539.41
2018-08-19T05:31:41.491Z,99535.25
2018-08-19T05:34:34.676Z,99539.50
2018-08-19T05:37:04.663Z,99539.44
2018-08-19T05:39:34.157Z,99536.93
2018-08-19T05:42:14.366Z,99545.99
2018-08-19T05:44:44.909Z,99546.67
2018-08-19T05:47:17.215Z,99547.07
2018-08-19T05:49:48.658Z,99549.56
2018-08-19T05:52:24.547Z,99549.25
2018-08-19T05:54:57.374Z,99555.06
2018-08-19T05:57:28.571Z,99553.88
2018-08-19T06:00:12.646Z,99556.94
2018-08-19T06:02:43.930Z,99554.23
2018-08-19T06:05:15.530Z,99555.62
2018-08-19T06:07:46.132Z,99558.79
2018-08-19T06:10:15.562Z,99552.86
2018-08-19T06:12:45.014Z,99560.73
2018-08-19T06:15:18.417Z,99562.51
2018-08-19T06:17:49.694Z,99566.53
2018-08-19T06:20:22.448Z,99565.75
2018-08-19T06:22:52.564Z,99561.98
2018-08-19T06:25:22.668Z,99568.50
2018-08-19T06:27:54.253Z,99566.89
2018-08-19T06:30:25.131Z,99566.44
2018-08-19T06:32:54.667Z,99572.09
2018-08-19T06:35:24.935Z,99564.86
2018-08-19T06:37:54.327Z,99569.09
2018-08-19T06:40:25.127Z,99577.54
2018-08-19T06:42:57.372Z,99573.15
2018-08-19T06:45:29.657Z,99573.76
2018-08-19T06:48:00.154Z,99570.79
2018-08-19T06:50:33.506Z,99569.84
2018-08-19T06:53:02.999Z,99574.23
2018-08-19T06:55:32.692Z,99574.15
2018-08-19T06:58:02.733Z,99573.69
2018-08-19T07:00:33.517Z,99568.94
2018-08-19T07:03:08.565Z,99574.18
2018-08-19T07:05:38.128Z,99570.62
2018-08-19T07:08:08.558Z,99573.38
2018-08-19T07:10:39.158Z,99570.82
2018-08-19T07:13:11.958Z,99569.13
2018-08-19T07:15:42.539Z,99566.50
2018-08-19T07:18:14.023Z,99568.78
2018-08-19T07:20:44.259Z,99573.89
2018-08-19T07:23:14.178Z,99569.61
2018-08-19T07:25:46.306Z,99565.59
2018-08-19T07:28:17.465Z,99570.66
2018-08-19T07:30:46.872Z,99568.73
2018-08-19T07:33:16.404Z,99561.30
2018-08-19T07:35:45.834Z,99442.41
2018-08-19T07:38:15.317Z,99562.32
2018-08-19T07:40:44.901Z,99566.83
2018-08-19T07:43:14.346Z,99570.62
2018-08-19T07:45:43.753Z,99573.37
2018-08-19T07:48:13.202Z,99574.95
2018-08-19T07:50:43.291Z,99572.63
2018-08-19T07:53:13.435Z,99571.84
2018-08-19T07:55:44.296Z,99574.25
2018-08-19T07:58:15.608Z,99573.91
2018-08-19T08:00:45.308Z,99571.45
2018-08-19T08:03:14.754Z,99574.34
2018-08-19T08:05:56.272Z,99574.00
2018-08-19T08:08:25.621Z,99575.69
2018-08-19T08:10:55.111Z,99584.00
2018-08-19T08:13:24.676Z,99582.08
2018-08-19T08:15:56.297Z,99580.59
2018-08-19T08:18:25.925Z,99583.34
2018-08-19T08:21:01.663Z,99581.13
2018-08-19T08:23:31.613Z,99582.16
2018-08-19T08:26:01.084Z,99589.31
2018-08-19T08:28:32.732Z,99592.04
2018-08-19T08:31:03.583Z,99586.80
2018-08-19T08:33:33.495Z,99582.92
2018-08-19T08:36:02.901Z,99583.92
2018-08-19T08:38:35.136Z,99580.28
2018-08-19T08:41:05.943Z,99571.50
2018-08-19T08:43:35.478Z,99578.27
2018-08-19T08:46:06.475Z,99567.13
2018-08-19T08:48:37.172Z,99560.34
2018-08-19T08:51:08.309Z,99556.94
2018-08-19T08:53:42.309Z,99560.33
2018-08-19T08:56:12.183Z,99562.02
2018-08-19T08:58:42.096Z,99558.66
2018-08-19T09:01:12.274Z,99559.34
2018-08-19T09:03:43.698Z,99558.52
2018-08-19T09:06:19.166Z,99555.78
2018-08-19T09:08:51.278Z,99548.67
2018-08-19T09:11:21.593Z,99549.83
2018-08-19T09:13:52.295Z,99553.20
2018-08-19T09:16:22.290Z,99550.45
2018-08-19T09:18:51.700Z,99546.63
2018-08-19T09:21:21.190Z,99540.56
2018-08-19T09:23:50.657Z,99546.06
2018-08-19T09:26:23.299Z,99545.53
2018-08-19T09:28:53.115Z,99536.53
2018-08-19T09:31:22.798Z,99535.89
2018-08-19T09:33:55.856Z,99534.97
2018-08-19T09:36:26.028Z,99534.59
2018-08-19T09:38:55.650Z,99535.94
2018-08-19T09:41:30.582Z,99531.97
2018-08-19T09:44:00.627Z,99526.44
2018-08-19T09:46:30.950Z,99530.16
2018-08-19T09:49:01.524Z,99528.19
2018-08-19T09:51:33.724Z,99526.48
2018-08-19T09:54:03.796Z,99526.63
2018-08-19T09:56:38.658Z,99520.14
2018-08-19T09:59:08.511Z,99518.03
2018-08-19T10:01:45.900Z,99514.44
2018-08-19T10:04:23.391Z,99513.31
2018-08-19T10:07:13.443Z,99516.06
2018-08-19T10:09:43.762Z,99510.77
2018-08-19T10:12:14.749Z,99504.37
2018-08-19T10:14:44.257Z,99509.51
2018-08-19T10:17:15.727Z,99504.48
2018-08-19T10:19:45.143Z,99505.86
2018-08-19T10:22:15.206Z,99510.57
2018-08-19T10:24:45.073Z,99501.77
2018-08-19T10:27:15.740Z,99507.42
2018-08-19T10:29:45.726Z,99497.40
2018-08-19T10:32:18.386Z,99495.56
2018-08-19T10:34:47.803Z,99494.16
2018-08-19T10:37:17.317Z,99498.23
2018-08-19T10:39:48.952Z,99488.13
2018-08-19T10:42:29.780Z,99492.06
2018-08-19T10:45:13.833Z,99487.05
2018-08-19T10:47:47.560Z,99489.35
2018-08-19T10:50:22.804Z,99485.80
2018-08-19T10:52:55.414Z,99483.47
2018-08-19T10:55:27.156Z,99486.94
2018-08-19T10:57:57.466Z,99486.92
2018-08-19T11:00:33.217Z,99488.59
2018-08-19T11:03:25.042Z,99480.81
2018-08-19T11:05:55.790Z,99483.12
2018-08-19T11:08:28.493Z,99480.81
2018-08-19T11:10:59.836Z,99476.67
2018-08-19T11:13:29.304Z,99478.31
2018-08-19T11:16:00.164Z,99481.52
2018-08-19T11:18:35.001Z,99473.40
2018-08-19T11:21:10.619Z,99467.45
2018-08-19T11:23:42.058Z,99476.80
2018-08-19T11:26:13.397Z,99469.74
2018-08-19T11:28:48.631Z,99464.23
2018-08-19T11:31:25.786Z,99463.72
2018-08-19T11:33:58.147Z,99467.41
2018-08-19T11:36:34.344Z,99465.79
2018-08-19T11:39:05.876Z,99463.33
2018-08-19T11:41:35.784Z,99459.36
2018-08-19T11:44:08.940Z,99453.56
2018-08-19T11:46:38.699Z,99449.58
2018-08-19T11:49:17.553Z,99456.17
2018-08-19T11:51:53.948Z,99447.25
2018-08-19T11:54:24.404Z,99447.65
2018-08-19T11:57:00.106Z,99437.49
2018-08-19T11:59:39.051Z,99438.23
2018-08-19T12:02:14.071Z,99435.04
2018-08-19T12:04:44.022Z,99424.36
2018-08-19T12:07:13.525Z,99425.70
2018-08-19T12:09:46.574Z,99426.53
2018-08-19T12:12:16.063Z,99412.15
2018-08-19T12:14:45.520Z,99407.55
2018-08-19T12:17:15.527Z,99411.23
2018-08-19T12:19:44.944Z,99399.79
2018-08-19T12:22:14.353Z,99395.06
2018-08-19T12:24:48.965Z,99391.61
2018-08-19T12:27:23.302Z,99385.80
2018-08-19T12:30:15.905Z,99386.99
2018-08-19T12:32:45.769Z,99390.53
2018-08-19T12:35:15.892Z,99386.03
2018-08-19T12:37:45.317Z,99381.47
2018-08-19T12:40:15.521Z,99376.84
2018-08-19T12:42:53.896Z,99379.80
2018-08-19T12:45:24.214Z,99374.33
2018-08-19T12:47:54.331Z,99375.13
2018-08-19T12:50:24.693Z,99380.44
2018-08-19T12:52:54.749Z,99365.87
2018-08-19T12:55:26.261Z,99362.64
2018-08-19T12:58:03.316Z,99354.49
2018-08-19T13:00:33.132Z,99359.44
2018-08-19T13:03:03.277Z,99357.45
2018-08-19T13:05:32.804Z,99354.62
2018-08-19T13:08:02.293Z,99364.36
2018-08-19T13:10:37.586Z,99348.55
2018-08-19T13:13:07.010Z,99345.12
2018-08-19T13:15:37.030Z,99346.16
2018-08-19T13:18:06.677Z,99342.28
2018-08-19T13:20:36.762Z,99337.51
2018-08-19T13:23:07.087Z,99333.05
2018-08-19T13:25:36.725Z,99332.15
2018-08-19T13:28:06.145Z,99325.72
2018-08-19T13:30:35.587Z,99329.23
2018-08-19T13:33:07.584Z,99324.82
2018-08-19T13:35:37.093Z,99317.54
2018-08-19T13:38:06.557Z,99318.81
2018-08-19T13:40:40.235Z,99313.39
2018-08-19T13:43:10.515Z,99311.36
2018-08-19T13:45:40.845Z,99306.41
2018-08-19T13:48:11.806Z,99301.38
2018-08-19T13:50:41.972Z,99301.53
2018-08-19T13:53:11.595Z,99292.31
2018-08-19T13:55:41.163Z,99291.00
2018-08-19T13:58:10.645Z,99300.08
2018-08-19T14:00:40.130Z,99293.05
2018-08-19T14:03:10.011Z,99295.45
2018-08-19T14:05:40.017Z,99292.09
2018-08-19T14:08:10.270Z,99271.06
2018-08-19T14:10:41.446Z,99286.27
2018-08-19T14:13:14.498Z,99287.36
2018-08-19T14:15:43.894Z,99283.93
2018-08-19T14:18:18.277Z,99278.34
2018-08-19T14:20:47.654Z,99280.23
2018-08-19T14:23:20.569Z,99274.45
2018-08-19T14:25:50.778Z,99270.75
2018-08-19T14:28:20.201Z,99270.05
2018-08-19T14:30:50.296Z,99265.28
2018-08-19T14:33:19.966Z,99263.12
2018-08-19T14:35:51.997Z,99264.23
2018-08-19T14:38:22.938Z,99260.63
2018-08-19T14:40:52.483Z,99258.32
2018-08-19T14:43:21.883Z,99262.66
2018-08-19T14:45:53.297Z,99262.55
2018-08-19T14:48:23.850Z,99260.48
2018-08-19T14:50:53.356Z,99258.87
2018-08-19T14:53:26.820Z,99261.17
2018-08-19T14:56:10.288Z,99255.89
2018-08-19T14:58:39.810Z,99244.61
2018-08-19T15:01:09.353Z,99240.33
2018-08-19T15:03:44.130Z,99248.22
2018-08-19T15:06:14.081Z,99242.98
2018-08-19T15:08:45.401Z,99241.20
2018-08-19T15:11:15.585Z,99244.75
2018-08-19T15:13:45.021Z,99244.36
2018-08-19T15:16:15.262Z,99238.29
2018-08-19T15:18:44.657Z,99240.70
2018-08-19T15:21:14.071Z,99239.16
2018-08-19T15:23:43.478Z,99235.63
2018-08-19T15:26:12.893Z,99243.62
2018-08-19T15:28:42.386Z,99229.35
2018-08-19T15:31:16.086Z,99226.42
2018-08-19T15:33:45.515Z,99229.79
2018-08-19T15:36:16.141Z,99229.80
2018-08-19T15:38:45.738Z,99221.06
2018-08-19T15:41:15.690Z,99220.38
2018-08-19T15:43:45.110Z,99222.97
2018-08-19T15:46:14.595Z,99217.73
2018-08-19T15:48:44.189Z,99209.92
2018-08-19T15:51:13.673Z,99215.79
2018-08-19T15:53:43.039Z,99222.67
2018-08-19T15:56:12.893Z,99141.70
2018-08-19T15:58:42.459Z,99215.44
2018-08-19T16:01:23.093Z,99219.53
2018-08-19T16:03:54.549Z,99212.91
2018-08-19T16:06:24.037Z,99202.95
2018-08-19T16:08:53.456Z,99208.10
2018-08-19T16:11:22.864Z,99198.14
2018-08-19T16:13:53.376Z,99204.62
2018-08-19T16:16:25.186Z,99206.97
2018-08-19T16:18:55.790Z,99203.38
2018-08-19T16:21:25.836Z,99191.83
2018-08-19T16:23:55.273Z,99176.06
2018-08-19T16:26:25.030Z,99199.70
2018-08-19T16:28:54.492Z,99194.33
2018-08-19T16:31:23.921Z,99193.35
2018-08-19T16:33:53.455Z,99188.41
2018-08-19T16:36:22.997Z,99010.49
2018-08-19T16:38:52.485Z,99192.61
2018-08-19T16:41:22.413Z,99191.05
2018-08-19T16:43:52.689Z,99190.91
2018-08-19T16:46:22.130Z,99189.02
2018-08-19T16:48:51.778Z,99186.06
2018-08-19T16:51:21.692Z,99190.46
2018-08-19T16:53:51.096Z,99189.41
2018-08-19T16:56:20.542Z,99186.09
2018-08-19T16:58:50.006Z,99189.83
2018-08-19T17:01:19.578Z,99183.34
2018-08-19T17:03:49.106Z,99186.37
2018-08-19T17:06:18.494Z,99186.16
2018-08-19T17:08:48.046Z,99190.75
2018-08-19T17:11:17.576Z,99190.41
2018-08-19T17:13:47.025Z,99190.75
2018-08-19T17:16:16.493Z,99187.03
2018-08-19T17:18:46.581Z,99184.00
2018-08-19T17:21:16.077Z,99182.72
2018-08-19T17:23:49.109Z,99184.28
2018-08-19T17:26:23.731Z,99188.25
2018-08-19T17:28:53.534Z,99191.88
2018-08-19T17:31:23.020Z,99193.66
2018-08-19T17:33:52.470Z,99190.70
2018-08-19T17:36:26.992Z,99193.31
2018-08-19T17:38:56.611Z,99194.63
2018-08-19T17:41:26.292Z,99190.43
2018-08-19T17:43:55.716Z,99195.83
2018-08-19T17:46:25.817Z,99197.54
2018-08-19T17:48:56.360Z,99196.45
2018-08-19T17:51:30.573Z,99198.61
2018-08-19T17:54:02.432Z,99200.27
2018-08-19T17:56:32.407Z,99198.55
2018-08-19T17:59:04.969Z,99199.80
2018-08-19T18:01:38.692Z,99189.20
2018-08-19T18:04:08.836Z,99193.42
2018-08-19T18:06:39.546Z,99197.70
2018-08-19T18:11:43.872Z,99204.05
2018-08-19T18:14:13.944Z,99197.72
2018-08-19T18:16:44.430Z,99193.95
2018-08-19T18:19:14.064Z,99207.50
2018-08-19T18:21:46.339Z,99176.22
2018-08-19T18:24:15.973Z,99201.75
2018-08-19T18:26:46.611Z,99210.68
2018-08-19T18:29:19.868Z,99213.72
2018-08-19T18:31:51.757Z,99212.46
2018-08-19T18:34:23.765Z,99210.02
2018-08-19T18:36:55.113Z,99217.53
2018-08-19T18:39:26.201Z,99219.70
2018-08-19T18:41:55.947Z,99210.30
2018-08-19T18:44:25.398Z,99222.39
2018-08-19T18:46:54.803Z,99216.63
2018-08-19T18:49:24.258Z,99219.81
2018-08-19T18:51:57.783Z,99216.18
2018-08-19T18:54:31.818Z,99212.00
2018-08-19T18:57:06.661Z,99213.11
2018-08-19T18:59:36.457Z,99220.30
2018-08-19T19:02:05.971Z,99220.05
2018-08-19T19:04:39.593Z,99214.39
2018-08-19T19:07:09.045Z,99213.80
2018-08-19T19:09:43.729Z,99214.88
2018-08-19T19:12:14.369Z,99212.78
2018-08-19T19:14:43.932Z,99217.73
2018-08-19T19:17:19.070Z,99209.52
2018-08-19T19:19:50.818Z,99211.41
2018-08-19T19:22:20.206Z,99212.84
2018-08-19T19:24:53.781Z,99210.62
2018-08-19T19:27:23.235Z,99208.44
2018-08-19T19:29:57.919Z,99206.08
2018-08-19T19:32:28.437Z,99208.63
2018-08-19T19:35:12.700Z,99208.78
2018-08-19T19:37:42.213Z,99213.47
2018-08-19T19:40:20.660Z,99212.05
2018-08-19T19:42:50.935Z,99213.27
2018-08-19T19:45:20.397Z,99216.69
2018-08-19T19:47:49.897Z,99216.87
2018-08-19T19:50:19.445Z,99213.19
2018-08-19T19:52:55.077Z,99210.12
2018-08-19T19:55:24.713Z,99213.02
2018-08-19T19:57:54.260Z,99214.53
2018-08-19T20:00:24.121Z,99215.36
2018-08-19T20:02:55.521Z,99224.00
2018-08-19T20:05:26.255Z,99219.62
2018-08-19T20:07:56.438Z,99221.80
2018-08-19T20:10:27.904Z,99219.78
2018-08-19T20:12:57.521Z,99218.47
2018-08-19T20:15:27.690Z,99219.30
2018-08-19T20:17:57.507Z,99220.34
2018-08-19T20:20:26.947Z,99219.12
2018-08-19T20:22:56.704Z,99216.61
2018-08-19T20:25:26.848Z,99214.08
2018-08-19T20:28:02.518Z,99217.97
2018-08-19T20:30:32.065Z,99219.81
2018-08-19T20:33:02.471Z,99212.75
2018-08-19T20:35:32.300Z,99222.18
2018-08-19T20:38:01.903Z,99222.36
2018-08-19T20:40:31.727Z,99235.80
2018-08-19T20:43:06.344Z,99229.88
2018-08-19T20:45:37.103Z,99233.23
2018-08-19T20:48:08.411Z,99238.61
2018-08-19T20:50:37.915Z,99238.13
2018-08-19T20:53:07.438Z,99234.90
2018-08-19T20:55:36.892Z,99244.16
2018-08-19T20:58:06.766Z,99239.75
2018-08-19T21:00:37.235Z,99246.31
2018-08-19T21:03:07.942Z,99249.58
2018-08-19T21:05:37.983Z,99252.30
2018-08-19T21:08:13.242Z,99246.55
2018-08-19T21:10:46.437Z,99255.34
2018-08-19T21:13:17.147Z,99251.30
2018-08-19T21:15:50.027Z,99249.09
2018-08-19T21:18:19.877Z,99244.71
2018-08-19T21:20:49.649Z,99247.72
2018-08-19T21:23:19.120Z,99246.66
2018-08-19T21:25:53.828Z,99247.16
2018-08-19T21:28:25.420Z,99255.56
2018-08-19T21:30:55.979Z,99247.70
2018-08-19T21:33:26.092Z,99249.50
2018-08-19T21:35:56.564Z,99243.88
2018-08-19T21:38:27.517Z,99245.84
2018-08-19T21:40:57.828Z,99247.02
2018-08-19T21:43:30.196Z,99243.62
2018-08-19T21:46:01.141Z,99247.00
2018-08-19T21:48:30.616Z,99241.09
2018-08-19T21:51:00.599Z,99246.63
2018-08-19T21:53:31.064Z,99241.14
2018-08-19T21:56:00.693Z,99244.63
2018-08-19T21:58:30.605Z,99245.86
2018-08-19T22:01:01.676Z,99244.47
2018-08-19T22:03:36.459Z,99245.19
2018-08-19T22:06:08.837Z,99244.52
2018-08-19T22:08:38.290Z,99248.88
2018-08-19T22:11:07.808Z,99245.86
2018-08-19T22:13:37.626Z,99248.02
2018-08-19T22:16:07.633Z,99243.16
2018-08-19T22:18:37.088Z,99247.88
2018-08-19T22:21:11.841Z,99245.52
2018-08-19T22:23:46.210Z,99244.52
2018-08-19T22:26:20.764Z,99239.83
2018-08-19T22:29:06.653Z,99239.83
2018-08-19T22:31:36.114Z,99241.78
2018-08-19T22:34:05.740Z,99239.08
2018-08-19T22:36:35.118Z,99235.08
2018-08-19T22:39:07.532Z,99233.77
2018-08-19T22:41:37.090Z,99229.28
2018-08-19T22:44:06.900Z,99223.33
2018-08-19T22:46:36.455Z,99222.24
2018-08-19T22:49:06.329Z,99221.91
2018-08-19T22:51:36.696Z,99226.77
2018-08-19T22:54:06.464Z,99221.97
2018-08-19T22:56:36.428Z,99222.58
2018-08-19T22:59:05.913Z,99221.23
2018-08-19T23:01:40.856Z,99219.41
2018-08-19T23:04:13.649Z,99221.63
2018-08-19T23:06:43.234Z,99212.08
2018-08-19T23:09:12.634Z,99214.96
2018-08-19T23:11:47.954Z,99210.44
2018-08-19T23:14:28.432Z,99202.06
2018-08-19T23:16:57.852Z,99211.05
2018-08-19T23:19:27.248Z,99206.91
2018-08-19T23:21:56.648Z,99201.80
2018-08-19T23:24:26.152Z,99206.89
2018-08-19T23:26:56.122Z,99208.23
2018-08-19T23:29:25.503Z,99207.03
2018-08-19T23:31:54.953Z,99201.23
2018-08-19T23:34:24.344Z,99201.53
2018-08-19T23:36:53.915Z,99203.08
2018-08-19T23:39:23.300Z,99201.34
2018-08-19T23:41:53.024Z,99196.91
2018-08-19T23:44:22.368Z,99191.24
2018-08-19T23:46:51.775Z,99195.08
2018-08-19T23:49:21.154Z,99193.95
2018-08-19T23:51:50.550Z,99193.47
2018-08-19T23:54:19.980Z,99194.56
2018-08-19T23:56:50.438Z,99192.34
2018-08-19T23:59:25.156Z,99190.76
